Time,TemperatureF,DewpointF,PressureIn,WindDirection,WindDirectionDegrees,WindSpeedMPH,WindSpeedGustMPH,Humidity,HourlyPrecipIn,Conditions,Clouds,dailyrainin,SolarRadiationWatts/m^2,SoftwareType,DateUTC
2013-07-06 00:02:00,73.0,71.0,-100.00,ESE,109,1.0,6.0,95,0.00,,,0.12,0.000000,,2013-07-06 04:02:00,
2013-07-06 00:12:00,72.0,71.0,-100.00,ESE,110,1.0,5.0,97,0.00,,,0.12,0.000000,,2013-07-06 04:12:00,
2013-07-06 00:43:00,72.0,71.0,-100.00,ESE,110,1.0,5.0,97,0.00,,,0.12,0.000000,,2013-07-06 04:43:00,
2013-07-06 00:53:00,72.0,71.0,-100.00,ESE,110,1.0,5.0,97,0.00,,,0.12,0.000000,,2013-07-06 04:53:00,
2013-07-06 01:02:00,72.0,71.0,-100.00,ESE,110,1.0,5.0,97,0.00,,,0.12,0.000000,,2013-07-06 05:02:00,
2013-07-06 01:12:00,72.0,71.0,-100.00,ESE,112,2.0,6.0,98,0.00,,,0.12,0.000000,,2013-07-06 05:12:00,
2013-07-06 01:34:00,72.0,71.0,-100.00,ESE,112,2.0,6.0,98,0.00,,,0.12,0.000000,,2013-07-06 05:34:00,
2013-07-06 01:43:00,72.0,71.0,-100.00,ESE,112,2.0,6.0,98,0.00,,,0.12,0.000000,,2013-07-06 05:43:00,
2013-07-06 01:53:00,72.0,71.0,-100.00,ESE,112,2.0,6.0,98,0.00,,,0.12,0.000000,,2013-07-06 05:53:00,
2013-07-06 02:02:00,72.0,71.0,-100.00,ESE,112,2.0,6.0,98,0.00,,,0.12,0.000000,,2013-07-06 06:02:00,
2013-07-06 02:12:00,72.0,71.0,-100.00,ESE,113,1.0,6.0,98,0.00,,,0.12,0.000000,,2013-07-06 06:12:00,
2013-07-06 02:43:00,72.0,71.0,-100.00,ESE,113,1.0,6.0,98,0.00,,,0.12,0.000000,,2013-07-06 06:43:00,
2013-07-06 02:53:00,72.0,71.0,-100.00,ESE,113,1.0,6.0,98,0.00,,,0.12,0.000000,,2013-07-06 06:53:00,
2013-07-06 03:02:00,72.0,71.0,-100.00,ESE,113,1.0,6.0,98,0.00,,,0.12,0.000000,,2013-07-06 07:02:00,
2013-07-06 03:12:00,72.0,71.0,-100.00,ESE,119,4.0,7.0,98,0.00,,,0.08,0.000000,,2013-07-06 07:12:00,
2013-07-06 03:44:00,72.0,71.0,-100.00,ESE,119,4.0,7.0,98,0.00,,,0.08,0.000000,,2013-07-06 07:44:00,
2013-07-06 03:52:00,72.0,71.0,-100.00,ESE,119,4.0,7.0,98,0.00,,,0.08,0.000000,,2013-07-06 07:52:00,
2013-07-06 04:02:00,72.0,71.0,-100.00,ESE,119,4.0,7.0,98,0.00,,,0.08,0.000000,,2013-07-06 08:02:00,
2013-07-06 04:43:00,72.0,71.0,-100.00,ESE,121,3.0,8.0,98,0.00,,,0.07,0.000000,,2013-07-06 08:43:00,
2013-07-06 04:54:00,72.0,71.0,-100.00,ESE,121,3.0,8.0,98,0.00,,,0.07,0.000000,,2013-07-06 08:54:00,
2013-07-06 05:02:00,72.0,71.0,-100.00,ESE,121,3.0,8.0,98,0.00,,,0.07,0.000000,,2013-07-06 09:02:00,
2013-07-06 05:11:00,72.0,71.0,-100.00,ESE,121,3.0,8.0,98,0.00,,,0.07,0.000000,,2013-07-06 09:11:00,
2013-07-06 05:43:00,73.0,72.0,-100.00,SE,132,1.0,7.0,98,0.00,,,0.06,0.000000,,2013-07-06 09:43:00,
2013-07-06 05:53:00,73.0,72.0,-100.00,SE,132,1.0,7.0,98,0.00,,,0.06,0.000000,,2013-07-06 09:53:00,
2013-07-06 06:02:00,73.0,72.0,-100.00,SE,132,1.0,7.0,98,0.00,,,0.06,0.000000,,2013-07-06 10:02:00,
2013-07-06 06:11:00,73.0,72.0,-100.00,SE,132,1.0,7.0,98,0.00,,,0.06,0.000000,,2013-07-06 10:11:00,
2013-07-06 06:43:00,73.0,72.0,-100.00,ESE,121,2.0,8.0,97,0.00,,,0.06,0.000000,,2013-07-06 10:43:00,
2013-07-06 06:53:00,73.0,72.0,-100.00,ESE,121,2.0,8.0,97,0.00,,,0.06,0.000000,,2013-07-06 10:53:00,
2013-07-06 07:01:00,73.0,72.0,-100.00,ESE,121,2.0,8.0,97,0.00,,,0.06,0.000000,,2013-07-06 11:01:00,
2013-07-06 07:11:00,73.0,72.0,-100.00,ESE,121,2.0,8.0,97,0.00,,,0.06,0.000000,,2013-07-06 11:11:00,
2013-07-06 07:12:00,74.0,73.0,-100.00,SE,124,1.0,5.0,97,0.00,,,0.06,8.000000,,2013-07-06 11:12:00,
2013-07-06 07:43:00,74.0,73.0,-100.00,SE,124,1.0,5.0,97,0.00,,,0.06,8.000000,,2013-07-06 11:43:00,
2013-07-06 07:53:00,74.0,73.0,-100.00,SE,124,1.0,5.0,97,0.00,,,0.06,8.000000,,2013-07-06 11:53:00,
2013-07-06 08:01:00,74.0,73.0,-100.00,SE,124,1.0,5.0,97,0.00,,,0.06,8.000000,,2013-07-06 12:01:00,
2013-07-06 08:12:00,75.0,73.0,-100.00,ESE,121,2.0,5.0,95,0.00,,,0.06,53.000000,,2013-07-06 12:12:00,
2013-07-06 08:43:00,75.0,73.0,-100.00,ESE,121,2.0,5.0,95,0.00,,,0.06,53.000000,,2013-07-06 12:43:00,
2013-07-06 08:52:00,75.0,73.0,-100.00,ESE,121,2.0,5.0,95,0.00,,,0.06,53.000000,,2013-07-06 12:52:00,
2013-07-06 09:01:00,75.0,73.0,-100.00,ESE,121,2.0,5.0,95,0.00,,,0.06,53.000000,,2013-07-06 13:01:00,
2013-07-06 09:12:00,78.0,73.0,-100.00,SE,129,4.0,9.0,86,0.00,,,0.06,157.000000,,2013-07-06 13:12:00,
2013-07-06 09:43:00,78.0,73.0,-100.00,SE,129,4.0,9.0,86,0.00,,,0.06,157.000000,,2013-07-06 13:43:00,
2013-07-06 09:52:00,78.0,73.0,-100.00,SE,129,4.0,9.0,86,0.00,,,0.06,157.000000,,2013-07-06 13:52:00,
2013-07-06 10:02:00,78.0,73.0,-100.00,SE,129,4.0,9.0,86,0.00,,,0.06,157.000000,,2013-07-06 14:02:00,
2013-07-06 10:12:00,78.0,72.0,-100.00,SSE,151,2.0,8.0,83,0.00,,,0.06,107.000000,,2013-07-06 14:12:00,
2013-07-06 10:34:00,78.0,72.0,-100.00,SSE,151,2.0,8.0,83,0.00,,,0.06,107.000000,,2013-07-06 14:34:00,
2013-07-06 10:42:00,78.0,72.0,-100.00,SSE,151,2.0,8.0,83,0.00,,,0.06,107.000000,,2013-07-06 14:42:00,
2013-07-06 10:53:00,78.0,72.0,-100.00,SSE,151,2.0,8.0,83,0.00,,,0.06,107.000000,,2013-07-06 14:53:00,
2013-07-06 11:02:00,78.0,72.0,-100.00,SSE,151,2.0,8.0,83,0.00,,,0.06,107.000000,,2013-07-06 15:02:00,
2013-07-06 11:12:00,82.0,72.0,-100.00,ESE,118,2.0,7.0,73,0.00,,,0.06,477.000000,,2013-07-06 15:12:00,
2013-07-06 11:43:00,82.0,72.0,-100.00,ESE,118,2.0,7.0,73,0.00,,,0.06,477.000000,,2013-07-06 15:43:00,
2013-07-06 11:53:00,82.0,72.0,-100.00,ESE,118,2.0,7.0,73,0.00,,,0.06,477.000000,,2013-07-06 15:53:00,
2013-07-06 12:07:00,82.0,72.0,-100.00,ESE,118,2.0,7.0,73,0.00,,,0.06,477.000000,,2013-07-06 16:07:00,
2013-07-06 12:12:00,82.0,73.0,-100.00,SE,127,5.0,10.0,74,0.00,,,0.06,654.000000,,2013-07-06 16:12:00,
2013-07-06 13:01:00,82.0,73.0,-100.00,SE,127,5.0,10.0,74,0.00,,,0.06,654.000000,,2013-07-06 17:01:00,
2013-07-06 13:11:00,82.0,73.0,-100.00,SE,127,5.0,10.0,74,0.00,,,0.06,654.000000,,2013-07-06 17:11:00,
2013-07-06 13:12:00,84.0,71.0,-100.00,SE,125,3.0,11.0,66,0.00,,,0.06,805.000000,,2013-07-06 17:12:00,
2013-07-06 14:00:00,84.0,71.0,-100.00,SE,125,3.0,11.0,66,0.00,,,0.06,805.000000,,2013-07-06 18:00:00,
2013-07-06 14:08:00,84.0,71.0,-100.00,SE,125,3.0,11.0,66,0.00,,,0.06,805.000000,,2013-07-06 18:08:00,
2013-07-06 14:12:00,80.0,71.0,-100.00,ESE,122,4.0,9.0,75,0.00,,,0.06,636.000000,,2013-07-06 18:12:00,
2013-07-06 15:12:00,79.0,73.0,-100.00,ESE,113,5.0,10.0,82,0.13,,,0.17,547.000000,,2013-07-06 19:12:00,
2013-07-06 16:07:00,79.0,73.0,-100.00,ESE,113,5.0,10.0,82,0.13,,,0.17,547.000000,,2013-07-06 20:07:00,
2013-07-06 16:12:00,78.0,75.0,-100.00,SE,129,3.0,10.0,90,0.00,,,0.17,315.000000,,2013-07-06 20:12:00,
2013-07-06 16:52:00,78.0,75.0,-100.00,SE,129,3.0,10.0,90,0.00,,,0.17,315.000000,,2013-07-06 20:52:00,
2013-07-06 17:10:00,78.0,75.0,-100.00,SE,129,3.0,10.0,90,0.00,,,0.17,315.000000,,2013-07-06 21:10:00,
2013-07-06 17:12:00,82.0,74.0,-100.00,SE,131,4.0,9.0,76,0.00,,,0.17,281.000000,,2013-07-06 21:12:00,
2013-07-06 18:00:00,82.0,74.0,-100.00,SE,131,4.0,9.0,76,0.00,,,0.17,281.000000,,2013-07-06 22:00:00,
2013-07-06 18:09:00,82.0,74.0,-100.00,SE,131,4.0,9.0,76,0.00,,,0.17,281.000000,,2013-07-06 22:09:00,
2013-07-06 18:12:00,81.0,73.0,-100.00,SE,127,5.0,10.0,78,0.02,,,0.19,160.000000,,2013-07-06 22:12:00,
2013-07-06 19:09:00,81.0,73.0,-100.00,SE,127,5.0,10.0,78,0.02,,,0.19,160.000000,,2013-07-06 23:09:00,
2013-07-06 19:12:00,77.0,73.0,-100.00,ESE,119,3.0,12.0,88,0.00,,,0.16,102.000000,,2013-07-06 23:12:00,
2013-07-06 22:09:00,75.0,74.0,-100.00,East,83,2.0,7.0,96,-99.99,,,0.16,3.000000,,2013-07-07 02:09:00,
2013-07-06 22:12:00,75.0,73.0,-100.00,ESE,118,2.0,8.0,95,0.00,,,0.16,0.000000,,2013-07-07 02:12:00,
2013-07-06 22:54:00,75.0,73.0,-100.00,ESE,118,2.0,8.0,95,0.00,,,0.16,0.000000,,2013-07-07 02:54:00,
2013-07-06 23:02:00,75.0,73.0,-100.00,ESE,118,2.0,8.0,95,0.00,,,0.16,0.000000,,2013-07-07 03:02:00,
2013-07-06 23:44:00,74.0,72.0,-100.00,ESE,116,1.0,8.0,95,0.00,,,0.16,0.000000,,2013-07-07 03:44:00,